createdAt,value
2018-05-29T00:00:39.437Z,7.27
2018-05-29T00:03:06.898Z,7.60
2018-05-29T00:05:34.380Z,8.13
2018-05-29T00:08:01.834Z,7.70
2018-05-29T00:10:29.294Z,8.10
2018-05-29T00:12:56.947Z,8.67
2018-05-29T00:15:24.420Z,8.27
2018-05-29T00:17:51.896Z,8.77
2018-05-29T00:20:19.439Z,8.43
2018-05-29T00:22:47.064Z,8.77
2018-05-29T00:25:14.638Z,8.40
2018-05-29T00:27:42.103Z,8.37
2018-05-29T00:30:09.542Z,8.00
2018-05-29T00:32:37.017Z,7.93
2018-05-29T00:35:04.469Z,7.40
2018-05-29T00:37:31.996Z,8.07
2018-05-29T00:39:59.441Z,8.00
2018-05-29T00:42:26.948Z,7.53
2018-05-29T00:44:54.427Z,7.73
2018-05-29T00:47:21.889Z,8.30
2018-05-29T00:49:49.365Z,7.90
2018-05-29T00:52:16.827Z,8.00
2018-05-29T00:54:44.297Z,7.70
2018-05-29T00:57:11.762Z,7.90
2018-05-29T00:59:39.269Z,8.17
2018-05-29T01:02:06.704Z,7.57
2018-05-29T01:04:34.285Z,8.47
2018-05-29T01:07:01.812Z,8.77
2018-05-29T01:09:29.273Z,8.40
2018-05-29T01:11:56.770Z,8.27
2018-05-29T01:14:24.242Z,8.37
2018-05-29T01:16:51.692Z,8.37
2018-05-29T01:19:19.133Z,8.53
2018-05-29T01:21:46.599Z,8.43
2018-05-29T01:24:14.041Z,8.47
2018-05-29T01:26:41.490Z,7.80
2018-05-29T01:29:09.227Z,7.97
2018-05-29T01:31:36.663Z,7.93
2018-05-29T01:34:04.260Z,7.57
2018-05-29T01:36:31.709Z,7.97
2018-05-29T01:38:59.247Z,8.23
2018-05-29T01:41:26.700Z,7.97
2018-05-29T01:43:54.166Z,7.47
2018-05-29T01:46:21.601Z,7.87
2018-05-29T01:48:49.072Z,7.73
2018-05-29T01:51:16.559Z,7.97
2018-05-29T01:53:44.079Z,8.27
2018-05-29T01:56:11.557Z,8.10
2018-05-29T01:58:38.997Z,8.23
2018-05-29T02:01:06.872Z,8.30
2018-05-29T02:03:34.357Z,8.00
2018-05-29T02:06:01.921Z,8.03
2018-05-29T02:08:29.755Z,7.80
2018-05-29T02:10:57.294Z,7.33
2018-05-29T02:13:24.806Z,8.50
2018-05-29T02:15:52.247Z,7.80
2018-05-29T02:18:19.709Z,9.23
2018-05-29T02:20:47.211Z,7.33
2018-05-29T02:23:14.710Z,8.83
2018-05-29T02:25:42.144Z,8.30
2018-05-29T02:28:09.611Z,8.00
2018-05-29T02:30:37.057Z,7.73
2018-05-29T02:33:04.607Z,7.43
2018-05-29T02:35:32.041Z,8.30
2018-05-29T02:37:59.530Z,8.40
2018-05-29T02:40:26.261Z,8.23
2018-05-29T02:42:53.778Z,8.03
2018-05-29T02:45:21.802Z,7.47
2018-05-29T02:47:49.273Z,8.17
2018-05-29T02:50:16.721Z,7.50
2018-05-29T02:52:44.275Z,8.10
2018-05-29T02:55:11.743Z,8.20
2018-05-29T02:57:39.177Z,9.30
2018-05-29T03:00:06.651Z,8.90
2018-05-29T03:02:34.112Z,8.57
2018-05-29T03:05:01.588Z,8.50
2018-05-29T03:07:29.070Z,8.10
2018-05-29T03:09:56.588Z,8.17
2018-05-29T03:12:24.065Z,8.23
2018-05-29T03:14:51.497Z,8.17
2018-05-29T03:17:18.963Z,7.13
2018-05-29T03:19:46.409Z,7.50
2018-05-29T03:22:13.870Z,7.23
2018-05-29T03:24:41.305Z,7.00
2018-05-29T03:27:08.780Z,6.83
2018-05-29T03:29:36.238Z,7.80
2018-05-29T03:32:04.032Z,7.80
2018-05-29T03:34:31.544Z,7.60
2018-05-29T03:36:59.010Z,8.07
2018-05-29T03:39:26.455Z,8.60
2018-05-29T03:41:53.907Z,7.30
2018-05-29T03:44:22.226Z,7.17
2018-05-29T03:46:49.671Z,7.37
2018-05-29T03:49:17.125Z,7.10
2018-05-29T03:51:44.626Z,8.40
2018-05-29T03:54:12.179Z,8.60
2018-05-29T03:56:39.712Z,9.40
2018-05-29T03:59:07.197Z,7.93
2018-05-29T04:01:34.644Z,9.07
2018-05-29T04:04:02.127Z,8.50
2018-05-29T04:06:29.582Z,8.67
2018-05-29T04:08:57.050Z,9.17
2018-05-29T04:11:24.508Z,8.50
2018-05-29T04:13:51.991Z,8.23
2018-05-29T04:16:19.596Z,8.87
2018-05-29T04:18:47.132Z,8.60
2018-05-29T04:21:14.620Z,10.30
2018-05-29T04:23:42.256Z,9.30
2018-05-29T04:26:09.833Z,9.60
2018-05-29T04:28:37.315Z,10.60
2018-05-29T04:31:04.779Z,12.00
2018-05-29T04:33:32.231Z,11.63
2018-05-29T04:35:59.732Z,12.00
2018-05-29T04:38:27.181Z,14.23
2018-05-29T04:40:54.663Z,13.83
2018-05-29T04:43:22.096Z,12.30
2018-05-29T04:45:49.614Z,12.83
2018-05-29T04:48:17.162Z,11.20
2018-05-29T04:50:44.756Z,10.00
2018-05-29T04:53:13.337Z,11.00
2018-05-29T04:55:40.986Z,11.10
2018-05-29T04:58:08.530Z,10.10
2018-05-29T05:00:35.963Z,10.43
2018-05-29T05:03:03.420Z,9.70
2018-05-29T05:05:30.889Z,9.97
2018-05-29T05:07:58.381Z,10.23
2018-05-29T05:10:25.842Z,10.50
2018-05-29T05:12:53.319Z,9.80
2018-05-29T05:15:20.805Z,9.47
2018-05-29T05:17:48.338Z,10.80
2018-05-29T05:20:15.825Z,10.33
2018-05-29T05:22:43.237Z,10.97
2018-05-29T05:25:10.768Z,10.07
2018-05-29T05:27:38.232Z,10.43
2018-05-29T05:30:05.700Z,9.87
2018-05-29T05:32:33.384Z,10.90
2018-05-29T05:35:00.851Z,11.30
2018-05-29T05:37:28.349Z,11.50
2018-05-29T05:39:55.838Z,11.40
2018-05-29T05:42:23.293Z,10.67
2018-05-29T05:44:50.757Z,10.10
2018-05-29T05:47:18.205Z,10.30
2018-05-29T05:49:45.779Z,12.37
2018-05-29T05:52:13.251Z,10.90
2018-05-29T05:54:40.715Z,11.40
2018-05-29T05:57:08.184Z,11.97
2018-05-29T05:59:35.678Z,12.27
2018-05-29T06:02:03.181Z,11.90
2018-05-29T06:04:30.677Z,12.47
2018-05-29T06:06:58.159Z,11.83
2018-05-29T06:09:25.644Z,14.00
2018-05-29T06:11:53.138Z,12.30
2018-05-29T06:14:21.484Z,12.30
2018-05-29T06:16:48.942Z,11.10
2018-05-29T06:19:16.404Z,11.07
2018-05-29T06:21:43.840Z,12.87
2018-05-29T06:24:11.745Z,11.83
2018-05-29T06:26:39.198Z,10.97
2018-05-29T06:29:06.752Z,12.67
2018-05-29T06:31:34.257Z,11.90
2018-05-29T06:34:01.713Z,11.77
2018-05-29T06:36:29.195Z,12.70
2018-05-29T06:38:56.906Z,12.60
2018-05-29T06:41:24.426Z,12.63
2018-05-29T06:43:51.908Z,13.03
2018-05-29T06:46:19.359Z,12.93
2018-05-29T06:48:46.788Z,12.33
2018-05-29T06:51:14.983Z,12.67
2018-05-29T06:53:42.424Z,12.20
2018-05-29T06:56:10.509Z,12.70
2018-05-29T06:58:38.010Z,12.73
2018-05-29T07:01:05.928Z,12.10
2018-05-29T07:03:33.394Z,11.60
2018-05-29T07:06:00.877Z,12.10
2018-05-29T07:08:28.319Z,12.10
2018-05-29T07:10:55.790Z,12.30
2018-05-29T07:13:23.279Z,12.33
2018-05-29T07:15:50.808Z,13.50
2018-05-29T07:18:18.295Z,12.20
2018-05-29T07:20:45.756Z,11.70
2018-05-29T07:23:13.223Z,11.37
2018-05-29T07:25:41.079Z,10.97
2018-05-29T07:28:08.536Z,12.63
2018-05-29T07:30:35.974Z,11.63
2018-05-29T07:33:03.608Z,11.50
2018-05-29T07:35:31.678Z,10.80
2018-05-29T07:37:59.211Z,11.40
2018-05-29T07:40:26.668Z,10.90
2018-05-29T07:42:54.398Z,11.20
2018-05-29T07:45:22.030Z,10.93
2018-05-29T07:47:49.526Z,10.97
2018-05-29T07:50:17.129Z,10.73
2018-05-29T07:52:44.572Z,11.10
2018-05-29T07:55:12.224Z,10.67
2018-05-29T07:57:39.757Z,12.40
2018-05-29T08:00:07.220Z,11.80
2018-05-29T08:02:34.716Z,11.30
2018-05-29T08:05:02.341Z,11.70
2018-05-29T08:07:29.794Z,11.47
2018-05-29T08:09:57.271Z,11.13
2018-05-29T08:12:24.721Z,10.63
2018-05-29T08:14:52.195Z,11.63
2018-05-29T08:17:19.703Z,11.83
2018-05-29T08:19:47.789Z,10.20
2018-05-29T08:22:15.232Z,10.30
2018-05-29T08:24:43.102Z,10.50
2018-05-29T08:27:11.226Z,10.30
2018-05-29T08:29:38.767Z,10.57
2018-05-29T08:32:06.301Z,9.90
2018-05-29T08:34:33.794Z,9.37
2018-05-29T08:37:01.345Z,10.20
2018-05-29T08:39:28.816Z,11.07
2018-05-29T08:41:56.273Z,10.80
2018-05-29T08:44:23.719Z,10.80
2018-05-29T08:46:51.203Z,10.80
2018-05-29T08:49:18.680Z,10.23
2018-05-29T08:51:46.137Z,10.70
2018-05-29T08:54:13.669Z,10.67
2018-05-29T08:56:41.266Z,11.47
2018-05-29T08:59:08.669Z,9.57
2018-05-29T09:01:36.139Z,10.10
2018-05-29T09:04:03.649Z,11.33
2018-05-29T09:06:31.113Z,10.90
2018-05-29T09:08:59.320Z,12.10
2018-05-29T09:11:26.808Z,10.73
2018-05-29T09:13:54.295Z,9.87
2018-05-29T09:16:21.751Z,10.40
2018-05-29T09:18:49.408Z,11.03
2018-05-29T09:21:17.037Z,10.33
2018-05-29T09:23:44.555Z,10.87
2018-05-29T09:26:12.741Z,10.43
2018-05-29T09:28:40.921Z,10.20
2018-05-29T09:31:08.371Z,10.30
2018-05-29T09:33:36.616Z,10.27
2018-05-29T09:36:04.058Z,9.97
2018-05-29T09:38:32.530Z,9.93
2018-05-29T09:40:59.981Z,10.60
2018-05-29T09:43:27.473Z,10.20
2018-05-29T09:45:55.662Z,10.30
2018-05-29T09:48:23.252Z,10.93
2018-05-29T09:50:51.241Z,11.07
2018-05-29T09:53:18.925Z,11.93
2018-05-29T09:55:46.375Z,11.30
2018-05-29T09:58:14.159Z,11.33
2018-05-29T10:00:41.686Z,11.93
2018-05-29T10:03:09.173Z,11.10
2018-05-29T10:05:36.625Z,10.13
2018-05-29T10:08:04.560Z,12.00
2018-05-29T10:10:32.085Z,10.90
2018-05-29T10:12:59.910Z,10.60
2018-05-29T10:15:27.380Z,10.53
2018-05-29T10:17:54.899Z,11.43
2018-05-29T10:20:22.372Z,11.53
2018-05-29T10:22:50.467Z,9.40
2018-05-29T10:25:18.008Z,10.70
2018-05-29T10:27:45.473Z,9.83
2018-05-29T10:30:12.948Z,8.90
2018-05-29T10:32:40.411Z,9.03
2018-05-29T10:35:07.900Z,9.07
2018-05-29T10:37:36.157Z,10.17
2018-05-29T10:40:03.726Z,8.93
2018-05-29T10:42:31.194Z,9.57
2018-05-29T10:44:58.660Z,9.87
2018-05-29T10:47:26.119Z,8.40
2018-05-29T10:49:54.024Z,8.17
2018-05-29T10:52:21.495Z,8.43
2018-05-29T10:54:49.031Z,7.70
2018-05-29T10:57:16.532Z,8.77
2018-05-29T10:59:44.050Z,8.53
2018-05-29T11:02:11.526Z,9.17
2018-05-29T11:04:38.982Z,8.37
2018-05-29T11:07:06.500Z,9.33
2018-05-29T11:09:34.986Z,8.90
2018-05-29T11:12:04.323Z,9.63
2018-05-29T11:14:31.777Z,8.77
2018-05-29T11:17:00.230Z,9.73
2018-05-29T11:19:27.687Z,9.50
2018-05-29T11:21:55.166Z,8.40
2018-05-29T11:24:22.658Z,8.57
2018-05-29T11:26:50.526Z,9.17
2018-05-29T11:29:18.336Z,9.30
2018-05-29T11:31:45.801Z,8.10
2018-05-29T11:34:13.412Z,8.60
2018-05-29T11:36:40.923Z,8.13
2018-05-29T11:39:08.382Z,8.43
2018-05-29T11:41:35.839Z,8.20
2018-05-29T11:44:03.304Z,8.10
2018-05-29T11:46:30.772Z,9.53
2018-05-29T11:48:58.337Z,8.50
2018-05-29T11:51:25.820Z,8.00
2018-05-29T11:53:53.317Z,9.00
2018-05-29T11:56:20.739Z,8.50
2018-05-29T11:58:52.090Z,9.10
2018-05-29T12:01:20.385Z,8.13
2018-05-29T12:03:47.912Z,8.37
2018-05-29T12:06:19.169Z,8.67
2018-05-29T12:08:47.380Z,8.83
2018-05-29T12:11:15.735Z,8.60
2018-05-29T12:13:43.215Z,8.43
2018-05-29T12:16:10.845Z,8.80
2018-05-29T12:18:38.326Z,7.80
2018-05-29T12:21:05.788Z,8.63
2018-05-29T12:23:33.251Z,8.90
2018-05-29T12:26:00.713Z,8.93
2018-05-29T12:28:28.224Z,8.80
2018-05-29T12:30:55.700Z,8.77
2018-05-29T12:33:23.342Z,8.20
2018-05-29T12:35:51.515Z,7.80
2018-05-29T12:38:19.109Z,8.57
2018-05-29T12:40:46.605Z,8.17
2018-05-29T12:43:14.083Z,9.30
2018-05-29T12:45:41.616Z,9.10
2018-05-29T12:48:09.503Z,9.10
2018-05-29T12:50:36.931Z,8.50
2018-05-29T12:53:04.474Z,8.40
2018-05-29T12:55:31.989Z,7.87
2018-05-29T12:57:59.568Z,7.70
2018-05-29T13:00:27.096Z,7.40
2018-05-29T13:02:54.693Z,7.33
2018-05-29T13:05:22.274Z,7.40
2018-05-29T13:07:49.753Z,7.70
2018-05-29T13:10:17.301Z,7.47
2018-05-29T13:12:45.218Z,7.70
2018-05-29T13:15:12.666Z,8.00
2018-05-29T13:17:40.674Z,7.57
2018-05-29T13:20:08.146Z,7.60
2018-05-29T13:22:36.586Z,6.50
2018-05-29T13:25:04.123Z,7.80
2018-05-29T13:27:31.614Z,8.30
2018-05-29T13:30:00.294Z,7.70
2018-05-29T13:32:27.772Z,7.07
2018-05-29T13:34:55.362Z,7.70
2018-05-29T13:37:22.895Z,7.03
2018-05-29T13:39:50.549Z,6.63
2018-05-29T13:42:17.982Z,6.60
2018-05-29T13:44:45.460Z,7.00
2018-05-29T13:47:13.287Z,6.10
2018-05-29T13:49:40.830Z,5.20
2018-05-29T13:52:08.607Z,6.20
2018-05-29T13:54:36.072Z,6.27
2018-05-29T13:57:05.796Z,6.00
2018-05-29T13:59:34.199Z,5.60
2018-05-29T14:02:02.741Z,6.30
2018-05-29T14:04:30.189Z,6.40
2018-05-29T14:06:57.883Z,6.57
2018-05-29T14:09:25.457Z,7.37
2018-05-29T14:11:52.985Z,5.57
2018-05-29T14:14:20.767Z,5.40
2018-05-29T14:16:48.291Z,5.60
2018-05-29T14:19:16.096Z,5.47
2018-05-29T14:21:43.555Z,5.70
2018-05-29T14:24:11.071Z,7.17
2018-05-29T14:26:38.530Z,5.83
2018-05-29T14:29:05.995Z,5.37
2018-05-29T14:31:33.476Z,5.93
2018-05-29T14:34:00.953Z,5.80
2018-05-29T14:36:28.410Z,6.30
2018-05-29T14:38:56.269Z,6.50
2018-05-29T14:41:23.774Z,5.60
2018-05-29T14:43:51.292Z,5.23
2018-05-29T14:46:18.711Z,5.73
2018-05-29T14:48:46.152Z,5.90
2018-05-29T14:51:15.490Z,4.90
2018-05-29T14:53:43.914Z,5.80
2018-05-29T14:56:11.406Z,5.87
2018-05-29T14:58:38.940Z,6.10
2018-05-29T15:01:06.372Z,5.53
2018-05-29T15:03:34.092Z,5.73
2018-05-29T15:06:01.891Z,5.83
2018-05-29T15:08:29.356Z,5.30
2018-05-29T15:10:56.878Z,5.93
2018-05-29T15:13:24.481Z,6.20
2018-05-29T15:15:51.962Z,6.00
2018-05-29T15:18:19.415Z,6.07
2018-05-29T15:20:46.940Z,6.10
2018-05-29T15:23:14.392Z,5.67
2018-05-29T15:25:41.875Z,6.00
2018-05-29T15:28:09.345Z,6.30
2018-05-29T15:30:37.678Z,6.23
2018-05-29T15:33:05.135Z,6.70
2018-05-29T15:35:32.625Z,6.10
2018-05-29T15:38:00.115Z,5.93
2018-05-29T15:40:27.567Z,5.63
2018-05-29T15:42:55.105Z,6.37
2018-05-29T15:45:22.557Z,6.17
2018-05-29T15:47:50.056Z,5.80
2018-05-29T15:50:17.645Z,7.23
2018-05-29T15:52:45.146Z,6.43
2018-05-29T15:55:12.583Z,6.90
2018-05-29T15:57:40.941Z,6.40
2018-05-29T16:00:08.459Z,6.70
2018-05-29T16:02:36.134Z,5.83
2018-05-29T16:05:03.620Z,6.83
2018-05-29T16:07:31.083Z,6.30
2018-05-29T16:09:58.943Z,6.87
2018-05-29T16:12:26.436Z,6.10
2018-05-29T16:14:53.914Z,5.63
2018-05-29T16:17:21.372Z,6.23
2018-05-29T16:19:48.944Z,6.07
2018-05-29T16:22:16.441Z,6.33
2018-05-29T16:24:44.055Z,6.07
2018-05-29T16:27:11.584Z,6.17
2018-05-29T16:29:39.210Z,5.43
2018-05-29T16:32:06.653Z,6.97
2018-05-29T16:34:34.483Z,6.00
2018-05-29T16:37:01.917Z,7.30
2018-05-29T16:39:29.746Z,6.43
2018-05-29T16:41:57.337Z,5.40
2018-05-29T16:44:24.841Z,5.50
2018-05-29T16:46:52.320Z,5.80
2018-05-29T16:49:19.827Z,5.37
2018-05-29T16:51:47.580Z,6.70
2018-05-29T16:54:15.158Z,5.23
2018-05-29T16:56:42.672Z,5.60
2018-05-29T16:59:10.292Z,5.63
2018-05-29T17:01:37.794Z,7.70
2018-05-29T17:04:05.458Z,8.00
2018-05-29T17:06:32.993Z,5.00
2018-05-29T17:09:00.694Z,7.17
2018-05-29T17:11:28.237Z,6.00
2018-05-29T17:13:55.740Z,6.67
2018-05-29T17:16:23.220Z,6.30
2018-05-29T17:18:50.838Z,6.00
2018-05-29T17:21:18.305Z,5.77
2018-05-29T17:23:45.829Z,5.50
2018-05-29T17:26:13.795Z,5.33
2018-05-29T17:28:41.270Z,5.83
2018-05-29T17:31:08.930Z,4.77
2018-05-29T17:33:36.433Z,5.80
2018-05-29T17:36:05.945Z,5.50
2018-05-29T17:38:35.418Z,5.40
2018-05-29T17:41:07.602Z,5.20
2018-05-29T17:43:37.503Z,5.30
2018-05-29T17:46:05.306Z,5.60
2018-05-29T17:48:32.818Z,5.77
2018-05-29T17:51:00.478Z,5.40
2018-05-29T17:53:30.620Z,5.00
2018-05-29T17:56:00.074Z,5.60
2018-05-29T17:58:29.515Z,5.20
2018-05-29T18:00:58.833Z,5.73
2018-05-29T18:03:26.712Z,4.87
2018-05-29T18:06:01.556Z,5.77
2018-05-29T18:08:31.690Z,5.10
2018-05-29T18:11:00.776Z,5.40
2018-05-29T18:13:28.518Z,4.57
2018-05-29T18:15:57.800Z,5.40
2018-05-29T18:18:26.454Z,5.17
2018-05-29T18:20:54.180Z,5.40
2018-05-29T18:23:21.900Z,5.27
2018-05-29T18:25:49.602Z,5.57
2018-05-29T18:28:17.251Z,5.00
2018-05-29T18:30:44.800Z,4.70
2018-05-29T18:33:12.333Z,5.30
2018-05-29T18:35:39.903Z,4.90
2018-05-29T18:38:10.916Z,4.90
2018-05-29T18:40:41.027Z,4.80
2018-05-29T18:43:08.535Z,5.70
2018-05-29T18:45:36.050Z,5.00
2018-05-29T18:48:03.500Z,5.27
2018-05-29T18:50:31.022Z,6.00
2018-05-29T18:52:58.487Z,4.87
2018-05-29T18:55:27.683Z,6.10
2018-05-29T18:57:55.184Z,5.90
2018-05-29T19:00:22.830Z,6.27
2018-05-29T19:02:50.506Z,5.77
2018-05-29T19:05:19.585Z,6.70
2018-05-29T19:07:47.043Z,5.70
2018-05-29T19:10:14.529Z,5.77
2018-05-29T19:12:42.009Z,5.60
2018-05-29T19:15:09.445Z,5.47
2018-05-29T19:17:36.971Z,5.77
2018-05-29T19:20:04.422Z,6.40
2018-05-29T19:22:31.908Z,5.73
2018-05-29T19:24:59.436Z,5.70
2018-05-29T19:27:26.968Z,6.13
2018-05-29T19:29:54.435Z,5.30
2018-05-29T19:32:21.947Z,5.77
2018-05-29T19:34:50.020Z,5.80
2018-05-29T19:37:17.494Z,6.37
2018-05-29T19:39:45.045Z,5.37
2018-05-29T19:42:12.549Z,5.30
2018-05-29T19:44:40.400Z,5.70
2018-05-29T19:47:07.968Z,6.10
2018-05-29T19:49:36.278Z,5.80
2018-05-29T19:52:04.682Z,5.93
2018-05-29T19:54:32.173Z,6.03
2018-05-29T19:56:59.666Z,6.20
2018-05-29T19:59:29.344Z,6.73
2018-05-29T20:01:58.893Z,6.37
2018-05-29T20:04:26.392Z,6.67
2018-05-29T20:06:56.808Z,6.40
2018-05-29T20:09:27.522Z,6.57
2018-05-29T20:11:59.545Z,6.33
2018-05-29T20:14:28.626Z,6.30
2018-05-29T20:16:58.428Z,7.20
2018-05-29T20:19:27.509Z,5.80
2018-05-29T20:21:56.135Z,6.27
2018-05-29T20:24:25.157Z,6.43
2018-05-29T20:26:57.997Z,6.50
2018-05-29T20:29:28.294Z,6.10
2018-05-29T20:32:00.066Z,7.63
2018-05-29T20:34:29.680Z,6.20
2018-05-29T20:36:58.262Z,6.43
2018-05-29T20:39:25.950Z,6.40
2018-05-29T20:41:54.184Z,6.65
2018-05-29T20:44:21.681Z,7.27
2018-05-29T20:46:49.268Z,7.40
2018-05-29T20:49:16.916Z,6.43
2018-05-29T20:51:44.386Z,6.87
2018-05-29T20:54:11.866Z,7.43
2018-05-29T20:56:39.428Z,7.23
2018-05-29T20:59:07.493Z,7.23
2018-05-29T21:01:35.045Z,8.20
2018-05-29T21:04:02.508Z,7.33
2018-05-29T21:06:29.980Z,7.27
2018-05-29T21:08:58.854Z,7.20
2018-05-29T21:11:26.361Z,7.70
2018-05-29T21:13:53.829Z,7.93
2018-05-29T21:16:21.365Z,7.30
2018-05-29T21:18:48.856Z,7.30
2018-05-29T21:21:16.389Z,7.80
2018-05-29T21:23:43.842Z,6.80
2018-05-29T21:26:11.359Z,6.73
2018-05-29T21:28:38.853Z,7.53
2018-05-29T21:31:06.583Z,7.63
2018-05-29T21:33:34.108Z,7.53
2018-05-29T21:36:01.564Z,7.70
2018-05-29T21:38:29.072Z,7.90
2018-05-29T21:40:56.524Z,7.43
2018-05-29T21:43:24.034Z,7.20
2018-05-29T21:45:51.494Z,6.87
2018-05-29T21:48:18.979Z,7.20
2018-05-29T21:50:46.444Z,8.17
2018-05-29T21:53:13.935Z,7.80
2018-05-29T21:55:41.420Z,8.33
2018-05-29T21:58:08.934Z,7.97
2018-05-29T22:00:36.391Z,7.77
2018-05-29T22:03:03.874Z,7.07
2018-05-29T22:05:31.378Z,7.80
2018-05-29T22:07:58.840Z,7.00
2018-05-29T22:10:26.402Z,7.73
2018-05-29T22:12:53.840Z,7.30
2018-05-29T22:15:21.298Z,7.40
2018-05-29T22:17:48.794Z,8.10
2018-05-29T22:20:16.278Z,8.70
2018-05-29T22:22:43.741Z,7.50
2018-05-29T22:25:11.972Z,8.57
2018-05-29T22:27:39.597Z,8.23
2018-05-29T22:30:07.091Z,7.90
2018-05-29T22:32:34.785Z,8.30
2018-05-29T22:35:03.047Z,8.30
2018-05-29T22:37:31.414Z,7.90
2018-05-29T22:39:58.910Z,8.13
2018-05-29T22:42:26.409Z,7.30
2018-05-29T22:44:53.873Z,7.63
2018-05-29T22:47:21.354Z,8.10
2018-05-29T22:49:48.820Z,8.20
2018-05-29T22:52:16.309Z,7.93
2018-05-29T22:54:43.766Z,9.27
2018-05-29T22:57:11.321Z,8.90
2018-05-29T22:59:38.818Z,8.57
2018-05-29T23:02:07.083Z,9.37
2018-05-29T23:04:34.533Z,9.37
2018-05-29T23:07:01.994Z,9.10
2018-05-29T23:09:29.524Z,9.50
2018-05-29T23:11:57.659Z,9.50
2018-05-29T23:14:25.164Z,9.37
2018-05-29T23:16:52.615Z,9.30
2018-05-29T23:19:20.066Z,8.40
2018-05-29T23:21:47.512Z,8.80
2018-05-29T23:24:15.089Z,7.90
2018-05-29T23:26:42.647Z,8.70
2018-05-29T23:29:10.223Z,8.90
2018-05-29T23:31:37.750Z,9.93
2018-05-29T23:34:05.398Z,9.10
2018-05-29T23:36:32.887Z,9.60
2018-05-29T23:39:01.016Z,10.10
2018-05-29T23:41:28.497Z,9.63
2018-05-29T23:43:56.118Z,10.30
2018-05-29T23:46:23.601Z,9.50
2018-05-29T23:48:51.045Z,10.10
2018-05-29T23:51:18.531Z,8.83
2018-05-29T23:53:45.984Z,8.63
2018-05-29T23:56:13.470Z,9.00
2018-05-29T23:58:40.990Z,9.20
